Terminal Aerodrome Forecast
Issued by NWS Austin/San Antonio, TX

Home | Current Version | Previous Version | Text Only | Print | Product List | Glossary On
Versions: 1 2 3 4 5 6 7 8 9 10 11 12 13 14 15 16
250
FTUS44 KEWX 241757 CCA
TAFAUS
TAF COR
KAUS 241757Z 2418/2524 19014G24KT P6SM FEW150 SCT250
     FM242300 17007KT P6SM SCT250
     FM250600 24006KT P6SM OVC016
     FM250800 32008KT P6SM BKN070
     FM251500 34014KT P6SM BKN070=

USA.gov is the U.S. government's official web portal to all federal, state and local government web resources and services.